Time;durP1;ratioP1;P1;durP2;ratioP2;P2;SDS_P1;SDS_P2;PMS_P1;PMS_P2;Temp;Humidity;BMP_temperature;BMP_pressure;BME280_temperature;BME280_humidity;BME280_pressure;Samples;Min_cycle;Max_cycle;Signal;HPM_P1;HPM_P2
2023/12/16 00:00:43;;;;;;;12.40;1.65;;;8.30;99.90;;;;;;5010771;28;20041;-77
2023/12/16 00:03:10;;;;;;;8.45;0.95;;;8.30;99.90;;;;;;4984642;28;20080;-78
2023/12/16 00:05:36;;;;;;;8.60;1.33;;;8.30;99.90;;;;;;4974178;28;20133;-77
2023/12/16 00:08:02;;;;;;;6.22;1.08;;;8.30;99.90;;;;;;4975750;28;20823;-78
2023/12/16 00:10:27;;;;;;;10.35;1.77;;;8.30;99.90;;;;;;4992076;28;20152;-77
2023/12/16 00:12:53;;;;;;;9.63;1.30;;;8.30;99.90;;;;;;4992220;28;20026;-78
2023/12/16 00:15:19;;;;;;;6.15;1.63;;;8.30;99.90;;;;;;4997238;28;20034;-77
2023/12/16 00:17:44;;;;;;;8.18;1.13;;;8.30;99.90;;;;;;4973666;28;20146;-77
2023/12/16 00:20:10;;;;;;;5.82;1.00;;;8.30;99.90;;;;;;4991574;28;20061;-79
2023/12/16 00:22:39;;;;;;;15.32;2.10;;;8.30;99.90;;;;;;4973004;28;20390;-78
2023/12/16 00:25:08;;;;;;;7.28;0.90;;;8.30;99.90;;;;;;4988807;28;20037;-78
2023/12/16 00:27:35;;;;;;;14.57;1.88;;;8.20;99.90;;;;;;4991885;28;20034;-78
2023/12/16 00:30:00;;;;;;;9.25;2.15;;;8.20;99.90;;;;;;4991696;28;20093;-78
2023/12/16 00:32:26;;;;;;;6.60;1.15;;;8.10;99.90;;;;;;4993333;28;20057;-79
2023/12/16 00:34:52;;;;;;;7.18;1.13;;;8.10;99.90;;;;;;5009927;28;20038;-77
2023/12/16 00:37:17;;;;;;;5.38;0.90;;;8.10;99.90;;;;;;4981550;28;20058;-77
2023/12/16 00:39:43;;;;;;;6.25;0.70;;;8.10;99.90;;;;;;4979893;28;20042;-76
2023/12/16 00:42:09;;;;;;;10.35;1.08;;;8.10;99.90;;;;;;4970850;28;20617;-78
2023/12/16 00:44:34;;;;;;;14.57;1.50;;;8.10;99.90;;;;;;4987868;28;20034;-77
2023/12/16 00:47:00;;;;;;;9.80;2.03;;;8.00;99.90;;;;;;4983764;28;20034;-78
2023/12/16 00:49:27;;;;;;;6.93;1.83;;;8.00;99.90;;;;;;5003148;28;20121;-78
2023/12/16 00:51:52;;;;;;;5.38;1.75;;;8.00;99.90;;;;;;4973636;28;20091;-77
2023/12/16 00:54:18;;;;;;;9.63;1.85;;;7.90;99.90;;;;;;4977298;28;20611;-78
2023/12/16 00:56:43;;;;;;;11.48;1.60;;;7.80;99.90;;;;;;4979694;28;20048;-78
2023/12/16 00:59:09;;;;;;;7.32;1.42;;;7.80;99.90;;;;;;4991120;28;20473;-78
2023/12/16 01:01:35;;;;;;;9.07;1.80;;;7.70;99.90;;;;;;4988468;28;20045;-74
2023/12/16 01:04:00;;;;;;;6.53;0.85;;;7.60;99.90;;;;;;4982865;28;20034;-78
2023/12/16 01:06:26;;;;;;;5.55;1.10;;;7.60;99.90;;;;;;5002643;28;20030;-78
2023/12/16 01:08:52;;;;;;;10.23;1.73;;;7.60;99.90;;;;;;4972636;28;20534;-76
2023/12/16 01:11:17;;;;;;;11.45;2.35;;;7.50;99.90;;;;;;5007262;28;20097;-77
2023/12/16 01:13:43;;;;;;;5.22;0.57;;;7.40;99.90;;;;;;4992192;28;20041;-78
2023/12/16 01:16:08;;;;;;;6.88;1.00;;;7.40;99.90;;;;;;4991298;28;20112;-78
2023/12/16 01:18:34;;;;;;;7.13;1.17;;;7.40;99.90;;;;;;4986835;28;20054;-78
2023/12/16 01:21:04;;;;;;;6.80;0.93;;;7.40;99.90;;;;;;4972179;28;20050;-77
2023/12/16 01:23:29;;;;;;;8.85;0.85;;;7.30;99.90;;;;;;4971874;28;20483;-77
2023/12/16 01:25:55;;;;;;;6.80;0.98;;;7.30;99.90;;;;;;4986166;28;20096;-78
2023/12/16 01:28:20;;;;;;;8.40;1.40;;;7.20;99.90;;;;;;4989537;28;20124;-78
2023/12/16 01:30:46;;;;;;;9.75;1.20;;;7.20;99.90;;;;;;4982484;28;20474;-76
2023/12/16 01:33:12;;;;;;;7.00;1.35;;;7.20;99.90;;;;;;4978565;28;20486;-78
2023/12/16 01:35:38;;;;;;;9.27;1.17;;;7.10;99.90;;;;;;4999314;28;20041;-77
2023/12/16 01:38:03;;;;;;;11.73;1.60;;;7.10;99.90;;;;;;4998165;28;20030;-78
2023/12/16 01:40:29;;;;;;;8.40;1.02;;;7.10;99.90;;;;;;5005896;28;20019;-79
2023/12/16 01:42:55;;;;;;;9.65;2.00;;;7.10;99.90;;;;;;5012897;28;20040;-78
2023/12/16 01:45:20;;;;;;;8.60;1.65;;;7.10;99.90;;;;;;4998116;28;20406;-77
2023/12/16 01:47:46;;;;;;;7.05;1.00;;;7.00;99.90;;;;;;4996864;28;20062;-78
2023/12/16 01:50:12;;;;;;;7.55;0.98;;;7.00;99.90;;;;;;5013020;28;20038;-78
2023/12/16 01:52:42;;;;;;;12.50;1.58;;;7.00;99.90;;;;;;4977999;28;20037;-78
2023/12/16 01:55:09;;;;;;;14.80;2.90;;;7.00;99.90;;;;;;4982731;28;20049;-79
2023/12/16 01:57:36;;;;;;;8.45;1.15;;;7.00;99.90;;;;;;5011946;28;20034;-77
2023/12/16 02:00:03;;;;;;;15.93;1.70;;;7.00;99.90;;;;;;5008852;28;20038;-77
2023/12/16 02:02:28;;;;;;;7.38;1.17;;;6.90;99.90;;;;;;4991209;28;20041;-78
2023/12/16 02:04:54;;;;;;;9.38;1.33;;;6.90;99.90;;;;;;4975449;28;20042;-76
2023/12/16 02:07:20;;;;;;;9.00;1.73;;;6.90;99.90;;;;;;5001320;28;20034;-77
2023/12/16 02:09:47;;;;;;;12.82;1.50;;;6.90;99.90;;;;;;4993796;28;20395;-77
2023/12/16 02:12:13;;;;;;;9.15;1.33;;;6.80;99.90;;;;;;4983831;28;20069;-78
2023/12/16 02:14:39;;;;;;;9.32;1.75;;;6.80;99.90;;;;;;4980293;28;20454;-79
2023/12/16 02:17:05;;;;;;;8.90;1.60;;;6.80;99.90;;;;;;4974678;28;20038;-78
2023/12/16 02:19:33;;;;;;;12.65;1.45;;;6.80;99.90;;;;;;4994589;28;20395;-77
2023/12/16 02:21:59;;;;;;;10.77;1.95;;;6.80;99.90;;;;;;4976874;28;20042;-78
2023/12/16 02:24:26;;;;;;;7.30;1.30;;;6.80;99.90;;;;;;4976514;28;20118;-79
2023/12/16 02:26:52;;;;;;;17.80;3.03;;;6.70;99.90;;;;;;4989184;28;20033;-78
2023/12/16 02:29:18;;;;;;;14.57;3.45;;;6.80;99.90;;;;;;4983072;28;20115;-76
2023/12/16 02:31:43;;;;;;;4.97;2.35;;;6.80;99.90;;;;;;4974459;28;20169;-77
2023/12/16 02:34:09;;;;;;;5.95;1.50;;;6.80;99.90;;;;;;5001889;28;20510;-77
2023/12/16 02:36:35;;;;;;;6.35;1.83;;;6.80;99.90;;;;;;4982645;28;20062;-78
2023/12/16 02:39:00;;;;;;;8.55;2.08;;;6.80;99.90;;;;;;4980424;28;20038;-78
2023/12/16 02:41:26;;;;;;;9.30;2.08;;;6.80;99.90;;;;;;4994927;28;20080;-78
2023/12/16 02:43:51;;;;;;;8.52;1.85;;;6.80;99.90;;;;;;4984373;28;20034;-78
2023/12/16 02:46:17;;;;;;;10.95;2.20;;;6.80;99.90;;;;;;4992170;28;20388;-77
2023/12/16 02:48:42;;;;;;;11.23;2.28;;;6.80;99.90;;;;;;4979405;28;20042;-77
2023/12/16 02:51:17;;;;;;;10.10;2.60;;;6.90;99.90;;;;;;4978820;28;20034;-78
2023/12/16 02:53:43;;;;;;;7.20;1.58;;;6.90;99.90;;;;;;4975563;28;20129;-78
2023/12/16 02:56:08;;;;;;;13.32;1.95;;;6.90;99.90;;;;;;4993368;28;20129;-78
2023/12/16 02:58:34;;;;;;;19.13;2.13;;;6.90;99.90;;;;;;5011913;28;20041;-78
2023/12/16 03:00:59;;;;;;;7.80;2.03;;;6.90;99.90;;;;;;4990024;28;20034;-78
2023/12/16 03:03:25;;;;;;;9.25;2.28;;;6.90;99.90;;;;;;4973947;28;20035;-79
2023/12/16 03:05:51;;;;;;;6.30;1.63;;;6.90;99.90;;;;;;4992672;28;20054;-76
2023/12/16 03:08:16;;;;;;;15.02;3.10;;;6.90;99.90;;;;;;4985898;28;20033;-78
2023/12/16 03:10:42;;;;;;;11.13;1.98;;;6.90;99.90;;;;;;4992290;28;20040;-77
2023/12/16 03:13:07;;;;;;;9.98;2.55;;;6.90;99.90;;;;;;4976416;28;20537;-78
2023/12/16 03:15:33;;;;;;;7.82;2.40;;;6.90;99.90;;;;;;4974468;28;20115;-78
2023/12/16 03:17:58;;;;;;;10.48;2.22;;;6.90;99.90;;;;;;5003790;28;20042;-79
2023/12/16 03:20:24;;;;;;;10.95;2.10;;;6.90;99.90;;;;;;4992226;28;20031;-77
2023/12/16 03:22:49;;;;;;;11.88;2.72;;;6.90;99.90;;;;;;4985877;28;20117;-76
2023/12/16 03:25:15;;;;;;;12.85;2.13;;;6.90;99.90;;;;;;4993487;28;20038;-77
2023/12/16 03:27:41;;;;;;;13.10;2.80;;;6.90;99.90;;;;;;4962775;28;20027;-78
2023/12/16 03:30:07;;;;;;;9.18;2.40;;;6.90;99.90;;;;;;5011160;28;20418;-78
2023/12/16 03:32:32;;;;;;;7.13;1.85;;;6.90;99.90;;;;;;4980885;28;20069;-77
2023/12/16 03:34:58;;;;;;;18.48;2.75;;;6.90;99.90;;;;;;4990965;28;20023;-77
2023/12/16 03:37:23;;;;;;;10.07;2.42;;;6.90;99.90;;;;;;4994413;28;20818;-77
2023/12/16 03:39:49;;;;;;;14.88;2.83;;;6.90;99.90;;;;;;4974429;28;20038;-78
2023/12/16 03:42:15;;;;;;;13.40;2.65;;;6.90;99.90;;;;;;4973545;28;20039;-77
2023/12/16 03:44:41;;;;;;;18.23;2.45;;;7.00;99.90;;;;;;4976356;28;20030;-77
2023/12/16 03:47:07;;;;;;;12.35;2.38;;;6.90;99.90;;;;;;4971867;28;20062;-76
2023/12/16 03:49:33;;;;;;;6.00;2.33;;;6.90;99.90;;;;;;5005983;28;20088;-79
2023/12/16 03:51:58;;;;;;;10.93;2.38;;;6.90;99.90;;;;;;4993865;28;20030;-80
2023/12/16 03:54:24;;;;;;;13.32;3.03;;;6.90;99.90;;;;;;4989213;28;20485;-77
2023/12/16 03:56:49;;;;;;;10.07;2.15;;;6.90;99.90;;;;;;4993013;28;20034;-77
2023/12/16 03:59:15;;;;;;;12.68;2.13;;;6.90;99.90;;;;;;4992560;28;20058;-78
2023/12/16 04:01:46;;;;;;;9.50;2.10;;;6.80;99.90;;;;;;4991613;28;20096;-77
2023/12/16 04:04:12;;;;;;;7.68;2.33;;;6.80;99.90;;;;;;4989584;28;20084;-78
2023/12/16 04:06:37;;;;;;;11.00;2.40;;;6.80;99.90;;;;;;4991842;28;20042;-79
2023/12/16 04:09:03;;;;;;;7.63;1.65;;;6.80;99.90;;;;;;4981455;28;20069;-77
2023/12/16 04:11:28;;;;;;;6.65;2.17;;;6.80;99.90;;;;;;5009572;28;20041;-77
2023/12/16 04:13:54;;;;;;;15.82;3.70;;;6.80;99.90;;;;;;4993276;28;20490;-77
2023/12/16 04:16:20;;;;;;;10.77;3.05;;;6.80;99.90;;;;;;4970709;28;20030;-77
2023/12/16 04:18:45;;;;;;;12.80;3.53;;;6.70;99.90;;;;;;4989493;28;20395;-78
2023/12/16 04:21:11;;;;;;;8.60;2.03;;;6.70;99.90;;;;;;5004364;28;20034;-76
2023/12/16 04:23:36;;;;;;;13.65;2.33;;;6.70;99.90;;;;;;4994712;28;20034;-79
2023/12/16 04:26:02;;;;;;;15.68;2.72;;;6.70;99.90;;;;;;4988151;28;20038;-78
2023/12/16 04:28:28;;;;;;;11.48;2.42;;;6.60;99.90;;;;;;4975545;28;20133;-78
2023/12/16 04:30:53;;;;;;;20.75;3.83;;;6.60;99.90;;;;;;4970337;28;20026;-78
2023/12/16 04:33:19;;;;;;;17.67;3.17;;;6.60;99.90;;;;;;4994557;28;20129;-76
2023/12/16 04:35:45;;;;;;;15.10;1.92;;;6.60;99.90;;;;;;4977232;28;20109;-78
2023/12/16 04:38:10;;;;;;;17.23;2.45;;;6.60;99.90;;;;;;4972725;28;20498;-77
2023/12/16 04:40:36;;;;;;;8.93;2.85;;;6.60;99.90;;;;;;4987234;28;20045;-76
2023/12/16 04:43:01;;;;;;;10.52;2.70;;;6.60;99.90;;;;;;5008995;28;20042;-77
2023/12/16 04:45:27;;;;;;;13.52;2.88;;;6.60;99.90;;;;;;4972645;28;20018;-79
2023/12/16 04:47:52;;;;;;;9.32;2.10;;;6.50;99.90;;;;;;5002483;28;20084;-79
2023/12/16 04:50:18;;;;;;;14.32;2.25;;;6.60;99.90;;;;;;4989113;28;20034;-78
2023/12/16 04:52:44;;;;;;;11.52;3.35;;;6.50;99.90;;;;;;4993917;28;20445;-78
2023/12/16 04:55:10;;;;;;;9.52;2.72;;;6.50;99.90;;;;;;4992603;28;20045;-78
2023/12/16 04:57:36;;;;;;;14.32;2.25;;;6.50;99.90;;;;;;4986216;28;20076;-78
2023/12/16 05:00:04;;;;;;;13.88;2.65;;;6.50;99.90;;;;;;5003172;28;20084;-79
2023/12/16 05:02:30;;;;;;;7.82;1.95;;;6.50;99.90;;;;;;4974866;28;20085;-77
2023/12/16 05:04:55;;;;;;;19.80;3.88;;;6.50;99.90;;;;;;4989500;28;20034;-77
2023/12/16 05:07:21;;;;;;;13.55;2.88;;;6.50;99.90;;;;;;4972307;28;20110;-78
2023/12/16 05:09:47;;;;;;;19.60;2.42;;;6.50;99.90;;;;;;4979739;28;20045;-78
2023/12/16 05:12:12;;;;;;;10.15;2.30;;;6.50;99.90;;;;;;4991600;28;20154;-79
2023/12/16 05:14:41;;;;;;;9.55;2.42;;;6.50;99.90;;;;;;5009106;28;20478;-79
2023/12/16 05:17:07;;;;;;;17.95;3.33;;;6.50;99.90;;;;;;4991212;28;20041;-78
2023/12/16 05:19:32;;;;;;;6.60;1.85;;;6.50;99.90;;;;;;4988237;28;20038;-78
2023/12/16 05:21:58;;;;;;;10.15;2.28;;;6.50;99.90;;;;;;4986637;28;20497;-78
2023/12/16 05:24:23;;;;;;;9.65;2.10;;;6.50;99.90;;;;;;4988677;28;20072;-78
2023/12/16 05:26:50;;;;;;;18.38;2.70;;;6.50;99.90;;;;;;4987329;28;20042;-77
2023/12/16 05:29:15;;;;;;;14.52;2.15;;;6.50;99.90;;;;;;4979895;28;20042;-78
2023/12/16 05:31:41;;;;;;;11.35;2.10;;;6.50;99.90;;;;;;4979931;28;20094;-78
2023/12/16 05:34:07;;;;;;;10.02;2.45;;;6.50;99.90;;;;;;4995818;28;20517;-77
2023/12/16 05:36:32;;;;;;;11.05;1.98;;;6.50;99.90;;;;;;5003998;28;20556;-77
2023/12/16 05:38:58;;;;;;;15.95;2.50;;;6.50;99.90;;;;;;5002201;28;20022;-78
2023/12/16 05:41:23;;;;;;;12.35;2.22;;;6.50;99.90;;;;;;4987313;28;20397;-78
2023/12/16 05:43:49;;;;;;;11.93;2.42;;;6.50;99.90;;;;;;4987286;28;20042;-77
2023/12/16 05:46:15;;;;;;;22.73;3.92;;;6.50;99.90;;;;;;4991427;28;20030;-78
2023/12/16 05:48:40;;;;;;;17.42;4.38;;;6.50;99.90;;;;;;4990995;28;20030;-76
2023/12/16 05:51:06;;;;;;;25.23;2.78;;;6.50;99.90;;;;;;4972296;28;20030;-78
2023/12/16 05:53:34;;;;;;;17.40;2.58;;;6.50;99.90;;;;;;4991022;28;20057;-78
2023/12/16 05:55:59;;;;;;;13.82;2.45;;;6.50;99.90;;;;;;4978659;28;20438;-78
2023/12/16 05:58:25;;;;;;;8.60;2.72;;;6.40;99.90;;;;;;4981262;28;20046;-78
2023/12/16 06:00:50;;;;;;;11.35;2.40;;;6.40;99.90;;;;;;5010158;28;20034;-77
2023/12/16 06:03:16;;;;;;;7.63;1.70;;;6.40;99.90;;;;;;4993292;28;20371;-77
2023/12/16 06:05:42;;;;;;;13.10;2.20;;;6.40;99.90;;;;;;4986783;28;20095;-78
2023/12/16 06:08:07;;;;;;;13.93;2.63;;;6.40;99.90;;;;;;4991481;28;20042;-78
2023/12/16 06:10:33;;;;;;;8.02;2.50;;;6.40;99.90;;;;;;4971676;28;20034;-79
2023/12/16 06:12:58;;;;;;;12.40;3.42;;;6.40;99.90;;;;;;4989266;28;20034;-77
2023/12/16 06:15:25;;;;;;;14.43;2.92;;;6.40;99.90;;;;;;4990184;28;20057;-78
2023/12/16 06:17:50;;;;;;;15.88;2.85;;;6.40;99.90;;;;;;4989705;28;20707;-77
2023/12/16 06:20:16;;;;;;;14.48;2.47;;;6.40;99.90;;;;;;4971296;28;20030;-76
2023/12/16 06:22:42;;;;;;;15.05;4.43;;;6.30;99.90;;;;;;5000413;28;20038;-79
2023/12/16 06:25:08;;;;;;;17.92;2.58;;;6.40;99.90;;;;;;4987534;28;20042;-78
2023/12/16 06:27:33;;;;;;;16.38;2.58;;;6.40;99.90;;;;;;5002147;28;20041;-78
2023/12/16 06:29:59;;;;;;;16.45;2.42;;;6.40;99.90;;;;;;4989822;28;20397;-78
2023/12/16 06:32:24;;;;;;;12.75;2.55;;;6.40;99.90;;;;;;5008591;28;20037;-78
2023/12/16 06:34:50;;;;;;;13.68;2.50;;;6.40;99.90;;;;;;4989061;28;20186;-78
2023/12/16 06:37:15;;;;;;;13.25;2.90;;;6.30;99.90;;;;;;4995103;28;20041;-77
2023/12/16 06:39:41;;;;;;;10.38;1.77;;;6.30;99.90;;;;;;4979271;28;20118;-78
2023/12/16 06:42:07;;;;;;;9.48;1.45;;;6.30;99.90;;;;;;4992180;28;20038;-77
2023/12/16 06:44:33;;;;;;;11.82;2.83;;;6.30;99.90;;;;;;4991467;28;20073;-77
2023/12/16 06:46:58;;;;;;;15.05;2.78;;;6.30;99.90;;;;;;4974429;28;20050;-77
2023/12/16 06:49:24;;;;;;;14.35;2.10;;;6.30;99.90;;;;;;4979243;28;20038;-79
2023/12/16 06:51:50;;;;;;;19.63;2.50;;;6.30;99.90;;;;;;4981506;28;20637;-76
2023/12/16 06:54:15;;;;;;;21.05;2.67;;;6.30;99.90;;;;;;4984262;28;20494;-77
2023/12/16 06:56:41;;;;;;;15.50;2.75;;;6.30;99.90;;;;;;5006647;28;20041;-76
2023/12/16 06:59:06;;;;;;;10.07;1.48;;;6.30;99.90;;;;;;4980787;28;20508;-77
2023/12/16 07:01:32;;;;;;;17.25;3.10;;;6.30;99.90;;;;;;4985040;28;20030;-78
2023/12/16 07:03:57;;;;;;;17.13;3.13;;;6.30;99.90;;;;;;4998108;28;20049;-78
2023/12/16 07:06:23;;;;;;;21.73;2.30;;;6.30;99.90;;;;;;4992742;28;20073;-79
2023/12/16 07:08:49;;;;;;;12.82;3.63;;;6.30;99.90;;;;;;4975572;28;21903;-79
2023/12/16 07:11:14;;;;;;;10.15;2.67;;;6.30;99.90;;;;;;4992544;28;20078;-78
2023/12/16 07:13:40;;;;;;;14.15;1.92;;;6.30;99.90;;;;;;5002831;28;20030;-77
2023/12/16 07:16:06;;;;;;;21.00;2.45;;;6.20;99.90;;;;;;4974814;28;20041;-79
2023/12/16 07:18:32;;;;;;;15.98;2.33;;;6.30;99.90;;;;;;4990763;28;20022;-78
2023/12/16 07:20:57;;;;;;;10.30;1.98;;;6.30;99.90;;;;;;4998220;28;20045;-79
2023/12/16 07:23:24;;;;;;;7.30;1.80;;;6.30;99.90;;;;;;4995232;28;20041;-77
2023/12/16 07:25:50;;;;;;;14.02;2.70;;;6.30;99.90;;;;;;4988171;28;20034;-78
2023/12/16 07:28:16;;;;;;;8.65;2.35;;;6.30;99.90;;;;;;4974988;28;20198;-79
2023/12/16 07:30:42;;;;;;;12.75;2.53;;;6.30;99.90;;;;;;5008759;28;20041;-80
2023/12/16 07:33:07;;;;;;;18.83;2.00;;;6.40;99.90;;;;;;4988563;28;20138;-78
2023/12/16 07:35:35;;;;;;;19.73;2.65;;;6.40;99.90;;;;;;5010599;28;20034;-77
2023/12/16 07:38:00;;;;;;;19.38;1.98;;;6.40;99.90;;;;;;4978890;28;20034;-79
2023/12/16 07:40:26;;;;;;;8.43;1.52;;;6.40;99.90;;;;;;4972696;28;20104;-78
2023/12/16 07:42:51;;;;;;;14.48;2.85;;;6.40;99.90;;;;;;4978494;28;20124;-79
2023/12/16 07:45:17;;;;;;;7.97;1.52;;;6.40;99.90;;;;;;4976977;28;20076;-77
2023/12/16 07:47:43;;;;;;;13.30;3.50;;;6.40;99.90;;;;;;4980708;28;20034;-78
2023/12/16 07:50:10;;;;;;;17.23;2.72;;;6.50;99.90;;;;;;4956551;28;20146;-79
2023/12/16 07:52:36;;;;;;;14.13;2.72;;;6.50;99.90;;;;;;4989863;28;20049;-80
2023/12/16 07:55:02;;;;;;;12.88;2.17;;;6.50;99.90;;;;;;4987875;28;20034;-76
2023/12/16 07:57:28;;;;;;;6.55;2.10;;;6.50;99.90;;;;;;4954158;28;20043;-78
2023/12/16 07:59:53;;;;;;;13.73;2.35;;;6.50;99.90;;;;;;4971216;28;20387;-79
2023/12/16 08:02:19;;;;;;;18.33;3.70;;;6.50;99.90;;;;;;4984085;28;20113;-78
2023/12/16 08:04:45;;;;;;;9.93;2.00;;;6.50;99.90;;;;;;4992274;28;20019;-79
2023/12/16 08:07:10;;;;;;;17.05;2.40;;;6.60;99.90;;;;;;4981045;28;20391;-77
2023/12/16 08:09:36;;;;;;;20.27;2.75;;;6.60;99.90;;;;;;5006020;28;20061;-77
2023/12/16 08:12:02;;;;;;;15.60;2.55;;;6.60;99.90;;;;;;4979844;28;20286;-78
2023/12/16 08:14:30;;;;;;;23.80;2.90;;;6.60;99.90;;;;;;4980756;28;20038;-78
2023/12/16 08:16:56;;;;;;;15.43;3.38;;;6.60;99.90;;;;;;4993282;28;20137;-77
2023/12/16 08:19:22;;;;;;;13.98;2.58;;;6.70;99.90;;;;;;4997634;28;20128;-77
2023/12/16 08:21:48;;;;;;;15.80;2.55;;;6.70;99.90;;;;;;4979266;28;20038;-78
2023/12/16 08:24:13;;;;;;;11.65;2.35;;;6.70;99.90;;;;;;4983428;28;20056;-77
2023/12/16 08:26:39;;;;;;;33.53;4.63;;;6.70;99.90;;;;;;4989594;28;20042;-77
2023/12/16 08:29:05;;;;;;;21.60;2.83;;;6.70;99.90;;;;;;4980206;28;20391;-78
2023/12/16 08:31:30;;;;;;;15.90;2.75;;;6.70;99.90;;;;;;4988537;28;20096;-77
2023/12/16 08:33:56;;;;;;;18.48;3.10;;;6.80;99.90;;;;;;4993104;28;20058;-79
2023/12/16 08:36:21;;;;;;;8.07;2.03;;;6.80;99.90;;;;;;4969234;28;20034;-76
2023/12/16 08:38:47;;;;;;;20.85;2.78;;;6.90;99.90;;;;;;4987868;28;20100;-78
2023/12/16 08:41:13;;;;;;;11.35;2.00;;;7.00;99.90;;;;;;4987068;28;20331;-77
2023/12/16 08:43:38;;;;;;;12.45;2.80;;;7.10;99.90;;;;;;5000954;28;20038;-76
2023/12/16 08:46:05;;;;;;;27.23;2.85;;;7.10;99.90;;;;;;4987234;28;20023;-77
2023/12/16 08:48:31;;;;;;;12.15;2.38;;;7.20;99.90;;;;;;4969967;28;20532;-76
2023/12/16 08:50:59;;;;;;;11.80;2.20;;;7.20;99.90;;;;;;4980065;28;20034;-77
2023/12/16 08:53:25;;;;;;;14.27;3.33;;;7.30;99.90;;;;;;4984167;28;20041;-76
2023/12/16 08:55:51;;;;;;;10.68;1.75;;;7.40;99.90;;;;;;4997521;28;20576;-76
2023/12/16 08:58:17;;;;;;;12.88;2.80;;;7.40;99.90;;;;;;4987043;28;20038;-76
2023/12/16 09:00:43;;;;;;;18.23;2.38;;;7.50;99.90;;;;;;4998934;28;20086;-76
2023/12/16 09:03:08;;;;;;;17.48;3.08;;;7.50;99.90;;;;;;4989099;28;20164;-77
2023/12/16 09:05:36;;;;;;;9.38;1.70;;;7.60;99.90;;;;;;4997347;28;20099;-76
2023/12/16 09:08:02;;;;;;;5.82;2.17;;;7.60;99.90;;;;;;4994636;28;20038;-77
2023/12/16 09:10:27;;;;;;;15.23;2.13;;;7.70;99.90;;;;;;4973293;28;20073;-78
2023/12/16 09:12:53;;;;;;;13.23;2.78;;;7.70;99.90;;;;;;4981211;28;20449;-77
2023/12/16 09:15:18;;;;;;;11.50;2.25;;;7.70;99.90;;;;;;4980360;28;20109;-76
2023/12/16 09:17:44;;;;;;;16.73;3.63;;;7.80;99.90;;;;;;4988075;28;20030;-77
2023/12/16 09:20:10;;;;;;;14.77;2.25;;;7.80;99.90;;;;;;4970104;28;20038;-77
2023/12/16 09:22:35;;;;;;;10.63;2.10;;;7.80;99.90;;;;;;4982400;28;20414;-79
2023/12/16 09:25:04;;;;;;;9.82;2.00;;;7.90;99.90;;;;;;4989343;28;20473;-77
2023/12/16 09:27:30;;;;;;;10.27;2.05;;;7.90;99.90;;;;;;4983452;28;20034;-78
2023/12/16 09:29:55;;;;;;;11.27;2.05;;;7.90;99.90;;;;;;4994479;28;20125;-77
2023/12/16 09:32:21;;;;;;;16.17;3.33;;;8.00;99.90;;;;;;4987962;28;20033;-76
2023/12/16 09:34:47;;;;;;;10.55;2.00;;;8.00;99.90;;;;;;4975540;28;20035;-76
2023/12/16 09:37:14;;;;;;;12.00;2.38;;;8.10;99.90;;;;;;4978799;28;20065;-77
2023/12/16 09:39:40;;;;;;;8.20;2.13;;;8.10;99.90;;;;;;4972924;28;20045;-77
2023/12/16 09:42:06;;;;;;;11.50;2.00;;;8.10;99.90;;;;;;5005390;28;20421;-78
2023/12/16 09:44:36;;;;;;;13.45;2.42;;;8.20;99.90;;;;;;4961174;28;20093;-76
2023/12/16 09:47:03;;;;;;;21.08;3.83;;;8.20;99.90;;;;;;4974875;28;20374;-76
2023/12/16 09:49:30;;;;;;;12.93;3.60;;;8.30;99.90;;;;;;4969070;28;20066;-77
2023/12/16 09:51:56;;;;;;;19.58;3.47;;;8.30;99.90;;;;;;5000439;28;20046;-76
2023/12/16 09:54:22;;;;;;;14.50;2.90;;;8.40;99.90;;;;;;4990280;28;20117;-78
2023/12/16 09:56:49;;;;;;;11.50;2.08;;;8.50;99.90;;;;;;4981206;28;20121;-76
2023/12/16 09:59:16;;;;;;;14.07;2.65;;;8.60;99.90;;;;;;4966826;28;20027;-77
2023/12/16 10:01:49;;;;;;;18.20;3.70;;;8.60;99.90;;;;;;4980208;28;20113;-75
2023/12/16 10:04:16;;;;;;;11.85;2.15;;;8.70;99.90;;;;;;4989844;28;20561;-75
2023/12/16 10:06:41;;;;;;;14.85;2.72;;;8.80;99.90;;;;;;4967765;28;20114;-76
2023/12/16 10:09:07;;;;;;;9.82;2.63;;;8.80;99.90;;;;;;4994490;28;20495;-78
2023/12/16 10:11:40;;;;;;;10.35;2.50;;;8.80;99.90;;;;;;4990914;28;20407;-77
2023/12/16 10:14:06;;;;;;;11.05;3.15;;;8.80;99.90;;;;;;4990810;28;20038;-77
2023/12/16 10:16:32;;;;;;;16.00;3.40;;;8.80;99.90;;;;;;4970814;28;20038;-76
2023/12/16 10:18:58;;;;;;;13.27;2.90;;;8.90;99.90;;;;;;4987622;28;20041;-76
2023/12/16 10:21:26;;;;;;;8.55;2.60;;;8.90;99.90;;;;;;5003038;28;20135;-76
2023/12/16 10:24:01;;;;;;;10.95;2.70;;;8.90;99.90;;;;;;4972535;28;20521;-77
2023/12/16 10:26:31;;;;;;;15.25;3.50;;;8.90;99.90;;;;;;4972415;28;20038;-77
2023/12/16 10:28:57;;;;;;;12.70;2.95;;;9.00;99.90;;;;;;4990252;28;20655;-77
2023/12/16 10:31:24;;;;;;;13.73;3.17;;;9.00;99.90;;;;;;4989157;28;20038;-76
2023/12/16 10:33:50;;;;;;;16.63;3.80;;;9.00;99.90;;;;;;4983406;28;20041;-75
2023/12/16 10:36:17;;;;;;;16.95;4.47;;;9.00;99.90;;;;;;4969182;28;20058;-76
2023/12/16 10:38:42;;;;;;;13.80;4.30;;;9.00;99.90;;;;;;4993743;28;20030;-76
2023/12/16 10:41:11;;;;;;;19.80;4.28;;;9.00;99.90;;;;;;4974347;28;20096;-77
2023/12/16 10:43:37;;;;;;;10.48;2.67;;;9.10;99.90;;;;;;4981936;28;20449;-76
2023/12/16 10:46:04;;;;;;;12.57;3.15;;;9.10;99.90;;;;;;4969768;28;20018;-76
2023/12/16 10:48:35;;;;;;;18.63;3.92;;;9.20;99.90;;;;;;4970751;28;20050;-75
2023/12/16 10:51:02;;;;;;;7.82;2.88;;;9.10;99.90;;;;;;4970868;28;20049;-76
2023/12/16 10:53:40;;;;;;;19.17;3.70;;;9.10;99.90;;;;;;4970276;28;20072;-76
2023/12/16 10:56:16;;;;;;;9.13;2.90;;;9.10;99.90;;;;;;4985799;28;20057;-76
2023/12/16 10:59:00;;;;;;;21.42;4.43;;;9.10;99.90;;;;;;4998738;28;20042;-77
2023/12/16 11:01:29;;;;;;;15.50;3.08;;;9.10;99.90;;;;;;4973314;28;20034;-77
2023/12/16 11:04:16;;;;;;;18.00;2.60;;;9.20;99.90;;;;;;4994016;28;20038;-76
2023/12/16 11:07:05;;;;;;;14.85;4.00;;;9.10;99.90;;;;;;4984172;28;20037;-77
2023/12/16 11:09:31;;;;;;;16.73;3.20;;;9.10;99.90;;;;;;4966627;28;20038;-77
2023/12/16 11:11:59;;;;;;;15.07;2.80;;;9.00;99.90;;;;;;4990181;28;20810;-76
2023/12/16 11:14:26;;;;;;;16.45;4.32;;;9.00;99.90;;;;;;4986845;28;20057;-77
2023/12/16 11:17:12;;;;;;;13.02;3.30;;;9.00;99.90;;;;;;4984457;28;20063;-77
2023/12/16 11:20:01;;;;;;;14.25;3.25;;;9.10;99.90;;;;;;4978517;28;20050;-75
2023/12/16 11:22:26;;;;;;;18.90;4.07;;;9.00;99.90;;;;;;4957791;28;20045;-77
2023/12/16 11:24:53;;;;;;;15.35;3.83;;;9.00;99.90;;;;;;4974402;28;20734;-76
2023/12/16 11:27:21;;;;;;;12.10;3.20;;;9.00;99.90;;;;;;4990971;28;20073;-77
2023/12/16 11:29:47;;;;;;;16.52;4.32;;;9.00;99.90;;;;;;4975346;28;20070;-76
2023/12/16 11:32:13;;;;;;;12.50;4.38;;;9.00;99.90;;;;;;4975481;28;20058;-78
2023/12/16 11:34:42;;;;;;;15.68;3.60;;;9.00;99.90;;;;;;5006039;28;20132;-76
2023/12/16 11:37:08;;;;;;;13.75;3.97;;;9.00;99.90;;;;;;4987412;28;20085;-76
2023/12/16 11:39:42;;;;;;;8.00;4.32;;;9.10;99.90;;;;;;4971372;28;20054;-78
2023/12/16 11:42:10;;;;;;;14.40;4.95;;;9.10;99.90;;;;;;4974360;28;20027;-76
2023/12/16 11:45:08;;;;;;;13.40;4.15;;;9.10;99.90;;;;;;4981529;28;20070;-79
2023/12/16 11:47:33;;;;;;;9.00;4.25;;;9.10;99.90;;;;;;4944858;28;20508;-77
2023/12/16 11:49:59;;;;;;;15.98;3.95;;;9.10;99.90;;;;;;4988445;28;20117;-77
2023/12/16 11:52:25;;;;;;;7.72;3.15;;;9.10;99.90;;;;;;4970704;28;20105;-77
2023/12/16 11:54:58;;;;;;;8.82;3.55;;;9.10;99.90;;;;;;4986638;28;20030;-77
2023/12/16 11:57:27;;;;;;;7.20;2.65;;;9.10;99.90;;;;;;5003631;28;20036;-76
2023/12/16 11:59:54;;;;;;;6.83;3.00;;;9.10;99.90;;;;;;4983168;28;20053;-77
2023/12/16 12:02:20;;;;;;;7.10;2.47;;;9.10;99.90;;;;;;5007084;28;20125;-76
2023/12/16 12:04:47;;;;;;;6.55;2.75;;;9.10;99.90;;;;;;4972563;28;20023;-77
2023/12/16 12:07:14;;;;;;;7.80;2.58;;;9.10;99.90;;;;;;4988165;28;20509;-78
2023/12/16 12:09:43;;;;;;;6.43;2.80;;;9.10;99.90;;;;;;4991654;28;20130;-77
2023/12/16 12:12:11;;;;;;;10.60;3.35;;;9.10;99.90;;;;;;4970643;28;20061;-77
2023/12/16 12:14:39;;;;;;;8.00;3.20;;;9.10;99.90;;;;;;4988783;28;20035;-77
2023/12/16 12:17:05;;;;;;;7.35;2.17;;;9.20;99.90;;;;;;4987617;28;20030;-77
2023/12/16 12:19:31;;;;;;;4.72;2.05;;;9.20;99.90;;;;;;4988043;28;20038;-77
2023/12/16 12:21:56;;;;;;;6.00;1.95;;;9.10;99.90;;;;;;4987814;28;20375;-76
2023/12/16 12:24:22;;;;;;;3.95;1.45;;;9.10;99.90;;;;;;4990136;28;20041;-76
2023/12/16 12:26:48;;;;;;;4.55;1.85;;;9.20;99.90;;;;;;4991029;28;20563;-77
2023/12/16 12:29:13;;;;;;;4.95;1.50;;;9.20;99.90;;;;;;4970675;28;20046;-76
2023/12/16 12:31:43;;;;;;;5.38;1.55;;;9.20;99.90;;;;;;5007194;28;20401;-77
2023/12/16 12:34:20;;;;;;;4.35;1.55;;;9.20;99.90;;;;;;5007241;28;20068;-77
2023/12/16 12:36:46;;;;;;;5.50;1.80;;;9.20;99.90;;;;;;4971930;28;20490;-75
2023/12/16 12:39:17;;;;;;;2.90;1.00;;;9.30;99.90;;;;;;4988090;28;20030;-76
2023/12/16 12:41:42;;;;;;;3.22;1.30;;;9.30;99.90;;;;;;4993329;28;20087;-77
2023/12/16 12:44:12;;;;;;;2.85;1.40;;;9.30;99.90;;;;;;4979744;28;20133;-76
2023/12/16 12:46:45;;;;;;;2.38;0.88;;;9.30;99.90;;;;;;4966362;28;20038;-76